Medina, Minnesota
Current Conditions -  °F | °C
As of 4:15 AM on Friday 24 Oct 2014 (Local Time) from KCFE Reporting Station
Clear Clear  
Wind Chill: 47°   Ceiling: Unl
Heat Index: 47°   Visibility: 10mi
Dew Point: 40°   Wind: 3mph
Humidity: 76%   Direction: 110°ESE
Pressure: 29.91"   Gusts: NA
Location:  45.1045°N, 93.6647°W
Report Text: KCFE 240915Z AUTO 11003KT 10SM CLR 09/05 A2991 RMK AO2 T00850045
Loading
Personal Weather Stations






























Interactive Weather Map
Tropical Storm Tracking
New forecast layout! Learn more

10-Day Weather Forecast

Advertisements
Track Severe Weather on mobile